sensor_id;sensor_type;location;lat;lon;timestamp;P1;durP1;ratioP1;P2;durP2;ratioP2
25972;SDS011;13765;51.166;4.466;2023-07-20T00:01:52;16.15;;;4.32;;
25972;SDS011;13765;51.166;4.466;2023-07-20T00:04:20;18.38;;;4.72;;
25972;SDS011;13765;51.166;4.466;2023-07-20T00:06:48;19.23;;;4.75;;
25972;SDS011;13765;51.166;4.466;2023-07-20T00:09:16;23.45;;;5.07;;
25972;SDS011;13765;51.166;4.466;2023-07-20T00:11:47;18.50;;;4.75;;
25972;SDS011;13765;51.166;4.466;2023-07-20T00:14:14;14.63;;;4.50;;
25972;SDS011;13765;51.166;4.466;2023-07-20T00:16:40;19.52;;;4.70;;
25972;SDS011;13765;51.166;4.466;2023-07-20T00:19:06;14.90;;;4.32;;
25972;SDS011;13765;51.166;4.466;2023-07-20T00:21:32;15.02;;;3.72;;
25972;SDS011;13765;51.166;4.466;2023-07-20T00:23:57;15.90;;;4.28;;
25972;SDS011;13765;51.166;4.466;2023-07-20T00:26:25;16.38;;;4.72;;
25972;SDS011;13765;51.166;4.466;2023-07-20T00:28:51;15.75;;;4.10;;
25972;SDS011;13765;51.166;4.466;2023-07-20T00:31:16;16.98;;;3.85;;
25972;SDS011;13765;51.166;4.466;2023-07-20T00:33:45;15.75;;;4.40;;
25972;SDS011;13765;51.166;4.466;2023-07-20T00:36:13;15.57;;;4.70;;
25972;SDS011;13765;51.166;4.466;2023-07-20T00:38:39;11.48;;;4.07;;
25972;SDS011;13765;51.166;4.466;2023-07-20T00:41:05;21.33;;;5.03;;
25972;SDS011;13765;51.166;4.466;2023-07-20T00:43:31;14.75;;;4.47;;
25972;SDS011;13765;51.166;4.466;2023-07-20T00:45:59;17.42;;;4.45;;
25972;SDS011;13765;51.166;4.466;2023-07-20T00:48:25;20.27;;;4.20;;
25972;SDS011;13765;51.166;4.466;2023-07-20T00:50:53;15.00;;;3.92;;
25972;SDS011;13765;51.166;4.466;2023-07-20T00:53:19;15.95;;;4.25;;
25972;SDS011;13765;51.166;4.466;2023-07-20T00:55:45;16.02;;;4.30;;
25972;SDS011;13765;51.166;4.466;2023-07-20T00:58:11;12.82;;;3.65;;
25972;SDS011;13765;51.166;4.466;2023-07-20T01:00:36;13.23;;;4.18;;
25972;SDS011;13765;51.166;4.466;2023-07-20T01:03:02;15.90;;;4.55;;
25972;SDS011;13765;51.166;4.466;2023-07-20T01:05:33;18.88;;;5.13;;
25972;SDS011;13765;51.166;4.466;2023-07-20T01:08:07;15.50;;;4.05;;
25972;SDS011;13765;51.166;4.466;2023-07-20T01:10:54;16.00;;;4.32;;
25972;SDS011;13765;51.166;4.466;2023-07-20T01:13:26;18.00;;;4.93;;
25972;SDS011;13765;51.166;4.466;2023-07-20T01:16:00;19.05;;;4.80;;
25972;SDS011;13765;51.166;4.466;2023-07-20T01:18:28;14.88;;;4.63;;
25972;SDS011;13765;51.166;4.466;2023-07-20T01:20:55;16.65;;;4.82;;
25972;SDS011;13765;51.166;4.466;2023-07-20T01:31:33;16.45;;;4.25;;
25972;SDS011;13765;51.166;4.466;2023-07-20T01:34:01;13.50;;;4.47;;
25972;SDS011;13765;51.166;4.466;2023-07-20T01:36:29;16.90;;;5.00;;
25972;SDS011;13765;51.166;4.466;2023-07-20T01:39:01;12.98;;;4.75;;
25972;SDS011;13765;51.166;4.466;2023-07-20T01:41:29;11.63;;;4.43;;
25972;SDS011;13765;51.166;4.466;2023-07-20T01:43:58;20.48;;;5.55;;
25972;SDS011;13765;51.166;4.466;2023-07-20T01:46:32;18.00;;;5.30;;
25972;SDS011;13765;51.166;4.466;2023-07-20T01:48:57;13.15;;;4.60;;
25972;SDS011;13765;51.166;4.466;2023-07-20T01:51:27;13.20;;;4.53;;
25972;SDS011;13765;51.166;4.466;2023-07-20T01:53:53;18.13;;;4.90;;
25972;SDS011;13765;51.166;4.466;2023-07-20T01:56:19;18.15;;;5.43;;
25972;SDS011;13765;51.166;4.466;2023-07-20T01:58:45;17.05;;;4.82;;
25972;SDS011;13765;51.166;4.466;2023-07-20T02:01:10;17.05;;;5.07;;
25972;SDS011;13765;51.166;4.466;2023-07-20T02:03:36;16.63;;;5.35;;
25972;SDS011;13765;51.166;4.466;2023-07-20T02:06:02;18.20;;;5.18;;
25972;SDS011;13765;51.166;4.466;2023-07-20T02:08:27;18.40;;;6.32;;
25972;SDS011;13765;51.166;4.466;2023-07-20T02:10:53;18.67;;;6.60;;
25972;SDS011;13765;51.166;4.466;2023-07-20T02:13:19;16.17;;;5.57;;
25972;SDS011;13765;51.166;4.466;2023-07-20T02:15:44;19.55;;;5.45;;
25972;SDS011;13765;51.166;4.466;2023-07-20T02:18:12;15.98;;;5.65;;
25972;SDS011;13765;51.166;4.466;2023-07-20T02:20:38;17.40;;;6.45;;
25972;SDS011;13765;51.166;4.466;2023-07-20T02:23:05;20.02;;;6.68;;
25972;SDS011;13765;51.166;4.466;2023-07-20T02:25:33;18.92;;;6.13;;
25972;SDS011;13765;51.166;4.466;2023-07-20T02:28:01;21.65;;;6.40;;
25972;SDS011;13765;51.166;4.466;2023-07-20T02:30:26;21.58;;;7.32;;
25972;SDS011;13765;51.166;4.466;2023-07-20T02:32:52;22.02;;;6.10;;
25972;SDS011;13765;51.166;4.466;2023-07-20T02:35:18;20.05;;;6.28;;
25972;SDS011;13765;51.166;4.466;2023-07-20T02:37:44;18.27;;;6.28;;
25972;SDS011;13765;51.166;4.466;2023-07-20T02:40:10;19.75;;;7.13;;
25972;SDS011;13765;51.166;4.466;2023-07-20T02:42:36;16.45;;;6.70;;
25972;SDS011;13765;51.166;4.466;2023-07-20T02:45:02;17.48;;;7.00;;
25972;SDS011;13765;51.166;4.466;2023-07-20T02:47:29;17.58;;;6.15;;
25972;SDS011;13765;51.166;4.466;2023-07-20T02:49:55;22.88;;;7.45;;
25972;SDS011;13765;51.166;4.466;2023-07-20T02:52:24;19.10;;;7.10;;
25972;SDS011;13765;51.166;4.466;2023-07-20T02:54:51;21.30;;;6.82;;
25972;SDS011;13765;51.166;4.466;2023-07-20T02:57:19;18.52;;;6.65;;
25972;SDS011;13765;51.166;4.466;2023-07-20T02:59:47;17.77;;;7.13;;
25972;SDS011;13765;51.166;4.466;2023-07-20T03:02:13;17.42;;;6.35;;
25972;SDS011;13765;51.166;4.466;2023-07-20T03:04:43;19.98;;;8.02;;
25972;SDS011;13765;51.166;4.466;2023-07-20T03:07:09;16.75;;;7.07;;
25972;SDS011;13765;51.166;4.466;2023-07-20T03:09:35;17.52;;;6.15;;
25972;SDS011;13765;51.166;4.466;2023-07-20T03:12:00;17.17;;;7.10;;
25972;SDS011;13765;51.166;4.466;2023-07-20T03:14:26;18.98;;;6.90;;
25972;SDS011;13765;51.166;4.466;2023-07-20T03:16:52;23.08;;;9.20;;
25972;SDS011;13765;51.166;4.466;2023-07-20T03:19:17;18.27;;;7.13;;
25972;SDS011;13765;51.166;4.466;2023-07-20T03:21:45;21.13;;;7.53;;
25972;SDS011;13765;51.166;4.466;2023-07-20T03:24:11;23.20;;;8.27;;
25972;SDS011;13765;51.166;4.466;2023-07-20T03:26:41;16.38;;;7.32;;
25972;SDS011;13765;51.166;4.466;2023-07-20T03:29:11;20.80;;;8.50;;
25972;SDS011;13765;51.166;4.466;2023-07-20T03:31:37;21.08;;;7.82;;
25972;SDS011;13765;51.166;4.466;2023-07-20T03:34:02;20.70;;;7.93;;
25972;SDS011;13765;51.166;4.466;2023-07-20T03:36:31;24.92;;;8.27;;
25972;SDS011;13765;51.166;4.466;2023-07-20T03:38:56;20.23;;;7.68;;
25972;SDS011;13765;51.166;4.466;2023-07-20T03:41:22;20.35;;;7.93;;
25972;SDS011;13765;51.166;4.466;2023-07-20T03:43:48;21.60;;;8.98;;
25972;SDS011;13765;51.166;4.466;2023-07-20T03:46:15;20.75;;;7.78;;
25972;SDS011;13765;51.166;4.466;2023-07-20T03:48:44;20.40;;;7.85;;
25972;SDS011;13765;51.166;4.466;2023-07-20T03:51:09;20.98;;;8.85;;
25972;SDS011;13765;51.166;4.466;2023-07-20T03:53:37;21.83;;;7.68;;
25972;SDS011;13765;51.166;4.466;2023-07-20T03:56:03;18.10;;;7.72;;
25972;SDS011;13765;51.166;4.466;2023-07-20T03:58:29;17.35;;;7.00;;
25972;SDS011;13765;51.166;4.466;2023-07-20T04:00:59;20.88;;;8.15;;
25972;SDS011;13765;51.166;4.466;2023-07-20T04:03:25;23.27;;;8.73;;
25972;SDS011;13765;51.166;4.466;2023-07-20T04:05:55;15.82;;;6.78;;
25972;SDS011;13765;51.166;4.466;2023-07-20T04:08:22;16.75;;;7.20;;
25972;SDS011;13765;51.166;4.466;2023-07-20T04:10:49;18.52;;;8.13;;
25972;SDS011;13765;51.166;4.466;2023-07-20T04:13:22;19.38;;;7.25;;
25972;SDS011;13765;51.166;4.466;2023-07-20T04:15:47;19.23;;;8.10;;
25972;SDS011;13765;51.166;4.466;2023-07-20T04:18:15;20.00;;;6.88;;
25972;SDS011;13765;51.166;4.466;2023-07-20T04:20:43;17.60;;;7.03;;
25972;SDS011;13765;51.166;4.466;2023-07-20T04:23:11;18.80;;;8.05;;
25972;SDS011;13765;51.166;4.466;2023-07-20T04:25:39;19.38;;;7.18;;
25972;SDS011;13765;51.166;4.466;2023-07-20T04:28:07;18.20;;;6.70;;
25972;SDS011;13765;51.166;4.466;2023-07-20T04:30:34;17.45;;;7.00;;
25972;SDS011;13765;51.166;4.466;2023-07-20T04:33:03;18.42;;;7.10;;
25972;SDS011;13765;51.166;4.466;2023-07-20T04:38:09;18.02;;;6.57;;
25972;SDS011;13765;51.166;4.466;2023-07-20T04:40:35;13.60;;;6.15;;
25972;SDS011;13765;51.166;4.466;2023-07-20T04:43:01;14.90;;;5.80;;
25972;SDS011;13765;51.166;4.466;2023-07-20T04:45:29;16.30;;;6.70;;
25972;SDS011;13765;51.166;4.466;2023-07-20T04:47:57;15.60;;;6.18;;
25972;SDS011;13765;51.166;4.466;2023-07-20T04:50:27;16.95;;;6.45;;
25972;SDS011;13765;51.166;4.466;2023-07-20T04:52:52;18.55;;;7.63;;
25972;SDS011;13765;51.166;4.466;2023-07-20T04:55:18;19.00;;;6.72;;
25972;SDS011;13765;51.166;4.466;2023-07-20T04:57:49;15.90;;;7.10;;
25972;SDS011;13765;51.166;4.466;2023-07-20T05:00:14;16.80;;;7.00;;
25972;SDS011;13765;51.166;4.466;2023-07-20T05:02:43;18.10;;;7.10;;
25972;SDS011;13765;51.166;4.466;2023-07-20T05:05:12;16.90;;;6.80;;
25972;SDS011;13765;51.166;4.466;2023-07-20T05:07:40;14.63;;;5.82;;
25972;SDS011;13765;51.166;4.466;2023-07-20T05:10:08;15.75;;;6.55;;
25972;SDS011;13765;51.166;4.466;2023-07-20T05:12:35;16.65;;;6.25;;
25972;SDS011;13765;51.166;4.466;2023-07-20T05:15:05;15.43;;;6.20;;
25972;SDS011;13765;51.166;4.466;2023-07-20T05:17:31;14.38;;;6.25;;
25972;SDS011;13765;51.166;4.466;2023-07-20T05:19:59;13.48;;;5.80;;
25972;SDS011;13765;51.166;4.466;2023-07-20T05:22:29;14.40;;;6.25;;
25972;SDS011;13765;51.166;4.466;2023-07-20T05:24:54;14.43;;;5.43;;
25972;SDS011;13765;51.166;4.466;2023-07-20T05:27:20;10.50;;;4.60;;
25972;SDS011;13765;51.166;4.466;2023-07-20T05:29:50;11.77;;;4.50;;
25972;SDS011;13765;51.166;4.466;2023-07-20T05:32:16;15.70;;;5.63;;
25972;SDS011;13765;51.166;4.466;2023-07-20T05:34:44;13.65;;;5.20;;
25972;SDS011;13765;51.166;4.466;2023-07-20T05:37:10;15.25;;;5.38;;
25972;SDS011;13765;51.166;4.466;2023-07-20T05:39:36;11.95;;;4.85;;
25972;SDS011;13765;51.166;4.466;2023-07-20T05:42:01;14.82;;;5.57;;
25972;SDS011;13765;51.166;4.466;2023-07-20T05:44:27;11.43;;;5.07;;
25972;SDS011;13765;51.166;4.466;2023-07-20T05:46:55;12.27;;;4.15;;
25972;SDS011;13765;51.166;4.466;2023-07-20T05:49:21;12.60;;;4.80;;
25972;SDS011;13765;51.166;4.466;2023-07-20T05:51:47;12.13;;;4.80;;
25972;SDS011;13765;51.166;4.466;2023-07-20T05:54:13;11.13;;;4.38;;
25972;SDS011;13765;51.166;4.466;2023-07-20T05:56:38;10.23;;;4.53;;
25972;SDS011;13765;51.166;4.466;2023-07-20T05:59:04;10.55;;;4.60;;
25972;SDS011;13765;51.166;4.466;2023-07-20T06:01:34;10.32;;;4.38;;
25972;SDS011;13765;51.166;4.466;2023-07-20T06:04:00;10.73;;;4.70;;
25972;SDS011;13765;51.166;4.466;2023-07-20T06:06:25;9.35;;;3.35;;
25972;SDS011;13765;51.166;4.466;2023-07-20T06:08:51;7.03;;;2.90;;
25972;SDS011;13765;51.166;4.466;2023-07-20T06:11:19;5.80;;;3.10;;
25972;SDS011;13765;51.166;4.466;2023-07-20T06:13:45;7.68;;;3.05;;
25972;SDS011;13765;51.166;4.466;2023-07-20T06:16:10;10.93;;;3.67;;
25972;SDS011;13765;51.166;4.466;2023-07-20T06:18:36;5.63;;;3.00;;
25972;SDS011;13765;51.166;4.466;2023-07-20T06:21:04;9.55;;;3.78;;
25972;SDS011;13765;51.166;4.466;2023-07-20T06:23:32;8.52;;;4.63;;
25972;SDS011;13765;51.166;4.466;2023-07-20T06:26:00;6.03;;;3.13;;
25972;SDS011;13765;51.166;4.466;2023-07-20T06:28:26;7.32;;;3.50;;
25972;SDS011;13765;51.166;4.466;2023-07-20T06:30:51;8.38;;;3.30;;
25972;SDS011;13765;51.166;4.466;2023-07-20T06:33:23;14.70;;;5.93;;
25972;SDS011;13765;51.166;4.466;2023-07-20T06:35:51;12.18;;;5.70;;
25972;SDS011;13765;51.166;4.466;2023-07-20T06:38:18;15.20;;;6.50;;
25972;SDS011;13765;51.166;4.466;2023-07-20T06:40:45;13.93;;;5.97;;
25972;SDS011;13765;51.166;4.466;2023-07-20T06:43:11;13.43;;;5.43;;
25972;SDS011;13765;51.166;4.466;2023-07-20T06:45:37;12.95;;;5.70;;
25972;SDS011;13765;51.166;4.466;2023-07-20T06:48:03;12.23;;;5.40;;
25972;SDS011;13765;51.166;4.466;2023-07-20T06:50:31;11.80;;;4.20;;
25972;SDS011;13765;51.166;4.466;2023-07-20T06:52:59;10.90;;;4.80;;
25972;SDS011;13765;51.166;4.466;2023-07-20T06:55:26;7.38;;;3.65;;
25972;SDS011;13765;51.166;4.466;2023-07-20T06:57:54;12.05;;;3.63;;
25972;SDS011;13765;51.166;4.466;2023-07-20T07:00:19;9.57;;;3.63;;
25972;SDS011;13765;51.166;4.466;2023-07-20T07:02:45;10.45;;;3.85;;
25972;SDS011;13765;51.166;4.466;2023-07-20T07:05:11;13.57;;;4.10;;
25972;SDS011;13765;51.166;4.466;2023-07-20T07:07:38;9.55;;;3.65;;
25972;SDS011;13765;51.166;4.466;2023-07-20T07:10:06;8.48;;;3.28;;
25972;SDS011;13765;51.166;4.466;2023-07-20T07:12:34;12.45;;;4.40;;
25972;SDS011;13765;51.166;4.466;2023-07-20T07:15:03;11.70;;;3.80;;
25972;SDS011;13765;51.166;4.466;2023-07-20T07:17:31;11.48;;;4.40;;
25972;SDS011;13765;51.166;4.466;2023-07-20T07:19:58;11.88;;;3.60;;
25972;SDS011;13765;51.166;4.466;2023-07-20T07:22:28;11.93;;;4.20;;
25972;SDS011;13765;51.166;4.466;2023-07-20T07:24:54;10.65;;;3.78;;
25972;SDS011;13765;51.166;4.466;2023-07-20T07:27:22;6.03;;;2.60;;
25972;SDS011;13765;51.166;4.466;2023-07-20T07:29:48;6.78;;;2.97;;
25972;SDS011;13765;51.166;4.466;2023-07-20T07:32:16;6.43;;;2.38;;
25972;SDS011;13765;51.166;4.466;2023-07-20T07:34:41;3.85;;;2.20;;
25972;SDS011;13765;51.166;4.466;2023-07-20T07:37:11;7.05;;;3.00;;
25972;SDS011;13765;51.166;4.466;2023-07-20T07:39:37;5.25;;;2.65;;
25972;SDS011;13765;51.166;4.466;2023-07-20T07:42:03;10.20;;;3.17;;
25972;SDS011;13765;51.166;4.466;2023-07-20T07:44:29;8.48;;;3.53;;
25972;SDS011;13765;51.166;4.466;2023-07-20T07:46:55;5.78;;;2.72;;
25972;SDS011;13765;51.166;4.466;2023-07-20T07:49:20;6.35;;;2.70;;
25972;SDS011;13765;51.166;4.466;2023-07-20T07:51:51;5.85;;;3.15;;
25972;SDS011;13765;51.166;4.466;2023-07-20T07:54:17;7.35;;;3.50;;
25972;SDS011;13765;51.166;4.466;2023-07-20T07:56:47;9.65;;;3.60;;
25972;SDS011;13765;51.166;4.466;2023-07-20T07:59:12;6.78;;;3.33;;
25972;SDS011;13765;51.166;4.466;2023-07-20T08:01:38;3.92;;;2.55;;
25972;SDS011;13765;51.166;4.466;2023-07-20T08:04:04;7.88;;;3.35;;
25972;SDS011;13765;51.166;4.466;2023-07-20T08:06:33;6.57;;;3.47;;
25972;SDS011;13765;51.166;4.466;2023-07-20T08:09:01;4.97;;;3.10;;
25972;SDS011;13765;51.166;4.466;2023-07-20T08:11:29;5.25;;;2.55;;
25972;SDS011;13765;51.166;4.466;2023-07-20T08:13:56;6.90;;;2.72;;
25972;SDS011;13765;51.166;4.466;2023-07-20T08:16:22;4.53;;;2.53;;
25972;SDS011;13765;51.166;4.466;2023-07-20T08:18:47;6.68;;;2.78;;
25972;SDS011;13765;51.166;4.466;2023-07-20T08:21:13;6.15;;;2.60;;
25972;SDS011;13765;51.166;4.466;2023-07-20T08:23:39;3.80;;;2.47;;
25972;SDS011;13765;51.166;4.466;2023-07-20T08:26:05;5.00;;;2.30;;
25972;SDS011;13765;51.166;4.466;2023-07-20T08:28:30;5.63;;;2.58;;
25972;SDS011;13765;51.166;4.466;2023-07-20T08:30:56;4.07;;;2.28;;
25972;SDS011;13765;51.166;4.466;2023-07-20T08:33:24;5.35;;;2.60;;
25972;SDS011;13765;51.166;4.466;2023-07-20T08:35:58;7.82;;;2.10;;
25972;SDS011;13765;51.166;4.466;2023-07-20T08:38:24;5.88;;;2.25;;
25972;SDS011;13765;51.166;4.466;2023-07-20T08:40:51;4.97;;;2.10;;
25972;SDS011;13765;51.166;4.466;2023-07-20T08:43:22;4.65;;;2.17;;
25972;SDS011;13765;51.166;4.466;2023-07-20T08:45:51;5.00;;;2.58;;
25972;SDS011;13765;51.166;4.466;2023-07-20T08:48:22;3.38;;;2.00;;
25972;SDS011;13765;51.166;4.466;2023-07-20T08:50:52;2.58;;;1.88;;
25972;SDS011;13765;51.166;4.466;2023-07-20T08:53:22;2.90;;;1.77;;
25972;SDS011;13765;51.166;4.466;2023-07-20T08:55:51;4.63;;;2.22;;
25972;SDS011;13765;51.166;4.466;2023-07-20T08:58:17;4.82;;;2.45;;
25972;SDS011;13765;51.166;4.466;2023-07-20T09:00:43;3.45;;;2.08;;
25972;SDS011;13765;51.166;4.466;2023-07-20T09:03:10;3.85;;;2.15;;
25972;SDS011;13765;51.166;4.466;2023-07-20T09:05:36;2.97;;;2.30;;
25972;SDS011;13765;51.166;4.466;2023-07-20T09:08:02;6.45;;;3.03;;
25972;SDS011;13765;51.166;4.466;2023-07-20T09:10:28;2.60;;;2.03;;
25972;SDS011;13765;51.166;4.466;2023-07-20T09:12:56;4.88;;;2.13;;
25972;SDS011;13765;51.166;4.466;2023-07-20T09:15:22;3.17;;;1.80;;
25972;SDS011;13765;51.166;4.466;2023-07-20T09:17:51;3.05;;;1.92;;
25972;SDS011;13765;51.166;4.466;2023-07-20T09:20:21;5.47;;;2.30;;
25972;SDS011;13765;51.166;4.466;2023-07-20T09:22:47;4.65;;;2.38;;
25972;SDS011;13765;51.166;4.466;2023-07-20T09:25:16;4.85;;;2.30;;
25972;SDS011;13765;51.166;4.466;2023-07-20T09:27:45;5.78;;;2.20;;
25972;SDS011;13765;51.166;4.466;2023-07-20T09:30:14;3.25;;;2.33;;
25972;SDS011;13765;51.166;4.466;2023-07-20T09:35:21;4.05;;;2.28;;
25972;SDS011;13765;51.166;4.466;2023-07-20T09:40:26;5.70;;;3.15;;
25972;SDS011;13765;51.166;4.466;2023-07-20T09:42:53;4.65;;;2.13;;
25972;SDS011;13765;51.166;4.466;2023-07-20T09:45:29;6.38;;;2.45;;
25972;SDS011;13765;51.166;4.466;2023-07-20T09:48:07;3.13;;;2.13;;
25972;SDS011;13765;51.166;4.466;2023-07-20T09:51:09;4.65;;;2.20;;
25972;SDS011;13765;51.166;4.466;2023-07-20T09:53:32;7.72;;;2.80;;
25972;SDS011;13765;51.166;4.466;2023-07-20T09:56:01;7.45;;;2.58;;
25972;SDS011;13765;51.166;4.466;2023-07-20T09:58:30;7.88;;;2.53;;
25972;SDS011;13765;51.166;4.466;2023-07-20T10:00:57;4.22;;;2.47;;
25972;SDS011;13765;51.166;4.466;2023-07-20T10:03:28;6.82;;;2.38;;
25972;SDS011;13765;51.166;4.466;2023-07-20T10:06:01;6.97;;;2.28;;
25972;SDS011;13765;51.166;4.466;2023-07-20T10:08:30;4.95;;;2.10;;
25972;SDS011;13765;51.166;4.466;2023-07-20T10:11:00;4.63;;;2.15;;
25972;SDS011;13765;51.166;4.466;2023-07-20T10:13:27;3.95;;;1.65;;
25972;SDS011;13765;51.166;4.466;2023-07-20T10:16:07;2.95;;;1.90;;
25972;SDS011;13765;51.166;4.466;2023-07-20T10:18:59;3.55;;;1.90;;
25972;SDS011;13765;51.166;4.466;2023-07-20T10:21:37;6.05;;;2.30;;
25972;SDS011;13765;51.166;4.466;2023-07-20T10:24:07;10.57;;;2.70;;
25972;SDS011;13765;51.166;4.466;2023-07-20T10:26:36;4.00;;;1.98;;
25972;SDS011;13765;51.166;4.466;2023-07-20T10:29:02;5.13;;;1.77;;
25972;SDS011;13765;51.166;4.466;2023-07-20T10:31:30;8.23;;;2.17;;
25972;SDS011;13765;51.166;4.466;2023-07-20T10:33:59;12.95;;;2.17;;
25972;SDS011;13765;51.166;4.466;2023-07-20T10:36:26;29.52;;;11.25;;
25972;SDS011;13765;51.166;4.466;2023-07-20T10:38:53;21.02;;;5.80;;
25972;SDS011;13765;51.166;4.466;2023-07-20T10:41:22;6.82;;;1.95;;
25972;SDS011;13765;51.166;4.466;2023-07-20T10:43:58;3.30;;;1.80;;
25972;SDS011;13765;51.166;4.466;2023-07-20T10:46:48;8.18;;;2.10;;
25972;SDS011;13765;51.166;4.466;2023-07-20T10:49:13;14.65;;;1.70;;
25972;SDS011;13765;51.166;4.466;2023-07-20T10:51:56;4.65;;;1.55;;
25972;SDS011;13765;51.166;4.466;2023-07-20T10:56:55;2.47;;;1.23;;
25972;SDS011;13765;51.166;4.466;2023-07-20T11:01:59;2.28;;;1.20;;
25972;SDS011;13765;51.166;4.466;2023-07-20T11:07:08;5.13;;;1.35;;
25972;SDS011;13765;51.166;4.466;2023-07-20T11:09:34;2.53;;;1.23;;
25972;SDS011;13765;51.166;4.466;2023-07-20T11:12:13;3.63;;;1.20;;
25972;SDS011;13765;51.166;4.466;2023-07-20T11:14:55;1.85;;;1.13;;
25972;SDS011;13765;51.166;4.466;2023-07-20T11:17:28;2.95;;;1.30;;
25972;SDS011;13765;51.166;4.466;2023-07-20T11:19:55;1.45;;;1.08;;
25972;SDS011;13765;51.166;4.466;2023-07-20T11:24:56;3.03;;;1.30;;
25972;SDS011;13765;51.166;4.466;2023-07-20T11:27:24;3.33;;;1.38;;
25972;SDS011;13765;51.166;4.466;2023-07-20T11:29:50;3.15;;;1.23;;
25972;SDS011;13765;51.166;4.466;2023-07-20T11:32:25;2.72;;;0.90;;
25972;SDS011;13765;51.166;4.466;2023-07-20T11:34:50;2.75;;;1.02;;
25972;SDS011;13765;51.166;4.466;2023-07-20T11:37:20;1.65;;;0.77;;
25972;SDS011;13765;51.166;4.466;2023-07-20T11:39:45;5.40;;;0.90;;
25972;SDS011;13765;51.166;4.466;2023-07-20T12:16:09;3.35;;;1.40;;
25972;SDS011;13765;51.166;4.466;2023-07-20T12:18:42;5.07;;;1.88;;
25972;SDS011;13765;51.166;4.466;2023-07-20T12:21:09;3.35;;;1.75;;
25972;SDS011;13765;51.166;4.466;2023-07-20T12:23:40;5.10;;;1.52;;
25972;SDS011;13765;51.166;4.466;2023-07-20T12:26:09;4.68;;;1.52;;
25972;SDS011;13765;51.166;4.466;2023-07-20T12:28:41;3.22;;;1.17;;
25972;SDS011;13765;51.166;4.466;2023-07-20T12:31:07;6.13;;;1.55;;
25972;SDS011;13765;51.166;4.466;2023-07-20T12:33:34;4.60;;;1.40;;
25972;SDS011;13765;51.166;4.466;2023-07-20T12:36:00;2.38;;;1.60;;
25972;SDS011;13765;51.166;4.466;2023-07-20T12:38:28;3.03;;;2.03;;
25972;SDS011;13765;51.166;4.466;2023-07-20T12:40:56;3.67;;;1.80;;
25972;SDS011;13765;51.166;4.466;2023-07-20T12:43:23;2.65;;;1.75;;
25972;SDS011;13765;51.166;4.466;2023-07-20T12:45:49;2.08;;;1.70;;
25972;SDS011;13765;51.166;4.466;2023-07-20T12:48:14;3.58;;;1.95;;
25972;SDS011;13765;51.166;4.466;2023-07-20T12:50:40;5.22;;;1.90;;
25972;SDS011;13765;51.166;4.466;2023-07-20T12:53:08;3.40;;;1.90;;
25972;SDS011;13765;51.166;4.466;2023-07-20T12:55:39;1.75;;;1.63;;
25972;SDS011;13765;51.166;4.466;2023-07-20T12:58:06;2.33;;;1.80;;
25972;SDS011;13765;51.166;4.466;2023-07-20T13:00:34;2.97;;;2.45;;
25972;SDS011;13765;51.166;4.466;2023-07-20T13:02:59;3.30;;;2.40;;
25972;SDS011;13765;51.166;4.466;2023-07-20T13:05:32;4.20;;;2.55;;
25972;SDS011;13765;51.166;4.466;2023-07-20T13:08:00;5.35;;;2.45;;
25972;SDS011;13765;51.166;4.466;2023-07-20T13:10:26;5.90;;;2.72;;
25972;SDS011;13765;51.166;4.466;2023-07-20T13:12:57;3.53;;;2.60;;
25972;SDS011;13765;51.166;4.466;2023-07-20T13:15:29;3.30;;;2.50;;
25972;SDS011;13765;51.166;4.466;2023-07-20T13:17:58;2.90;;;2.17;;
25972;SDS011;13765;51.166;4.466;2023-07-20T13:20:27;4.30;;;2.67;;
25972;SDS011;13765;51.166;4.466;2023-07-20T13:22:53;8.52;;;2.78;;
25972;SDS011;13765;51.166;4.466;2023-07-20T13:25:21;3.92;;;2.50;;
25972;SDS011;13765;51.166;4.466;2023-07-20T13:27:48;5.53;;;2.55;;
25972;SDS011;13765;51.166;4.466;2023-07-20T13:30:18;4.75;;;2.35;;
25972;SDS011;13765;51.166;4.466;2023-07-20T13:32:46;5.50;;;2.22;;
25972;SDS011;13765;51.166;4.466;2023-07-20T13:35:12;4.38;;;2.67;;
25972;SDS011;13765;51.166;4.466;2023-07-20T13:37:37;5.97;;;2.88;;
25972;SDS011;13765;51.166;4.466;2023-07-20T13:40:06;3.75;;;2.67;;
25972;SDS011;13765;51.166;4.466;2023-07-20T13:42:36;8.43;;;3.03;;
25972;SDS011;13765;51.166;4.466;2023-07-20T13:45:02;6.15;;;2.80;;
25972;SDS011;13765;51.166;4.466;2023-07-20T13:47:28;6.35;;;2.60;;
25972;SDS011;13765;51.166;4.466;2023-07-20T13:49:54;5.85;;;2.92;;
25972;SDS011;13765;51.166;4.466;2023-07-20T13:52:24;7.65;;;2.83;;
25972;SDS011;13765;51.166;4.466;2023-07-20T13:54:52;5.25;;;2.90;;
25972;SDS011;13765;51.166;4.466;2023-07-20T13:57:18;5.30;;;2.70;;
25972;SDS011;13765;51.166;4.466;2023-07-20T13:59:44;5.88;;;3.00;;
25972;SDS011;13765;51.166;4.466;2023-07-20T14:02:10;4.45;;;3.08;;
25972;SDS011;13765;51.166;4.466;2023-07-20T14:04:35;15.82;;;3.95;;
25972;SDS011;13765;51.166;4.466;2023-07-20T14:07:01;14.05;;;2.97;;
25972;SDS011;13765;51.166;4.466;2023-07-20T14:09:27;6.13;;;2.83;;
25972;SDS011;13765;51.166;4.466;2023-07-20T14:11:55;11.85;;;3.17;;
25972;SDS011;13765;51.166;4.466;2023-07-20T14:14:21;8.25;;;3.17;;
25972;SDS011;13765;51.166;4.466;2023-07-20T14:16:49;8.30;;;3.30;;
25972;SDS011;13765;51.166;4.466;2023-07-20T14:19:21;8.38;;;3.35;;
25972;SDS011;13765;51.166;4.466;2023-07-20T14:21:46;10.18;;;3.67;;
25972;SDS011;13765;51.166;4.466;2023-07-20T14:24:12;10.15;;;3.47;;
25972;SDS011;13765;51.166;4.466;2023-07-20T14:26:38;11.32;;;3.65;;
25972;SDS011;13765;51.166;4.466;2023-07-20T14:29:03;7.20;;;3.25;;
25972;SDS011;13765;51.166;4.466;2023-07-20T14:31:29;6.63;;;3.53;;
25972;SDS011;13765;51.166;4.466;2023-07-20T14:33:59;13.07;;;3.90;;
25972;SDS011;13765;51.166;4.466;2023-07-20T14:36:25;6.88;;;3.58;;
25972;SDS011;13765;51.166;4.466;2023-07-20T14:38:50;10.55;;;4.68;;
25972;SDS011;13765;51.166;4.466;2023-07-20T14:41:16;7.50;;;3.55;;
25972;SDS011;13765;51.166;4.466;2023-07-20T14:43:42;5.47;;;2.83;;
25972;SDS011;13765;51.166;4.466;2023-07-20T14:46:10;7.25;;;3.42;;
25972;SDS011;13765;51.166;4.466;2023-07-20T14:48:40;6.75;;;2.90;;
25972;SDS011;13765;51.166;4.466;2023-07-20T14:51:05;5.57;;;3.55;;
25972;SDS011;13765;51.166;4.466;2023-07-20T14:53:34;5.32;;;3.15;;
25972;SDS011;13765;51.166;4.466;2023-07-20T14:56:00;5.10;;;2.80;;
25972;SDS011;13765;51.166;4.466;2023-07-20T14:58:29;9.82;;;3.58;;
25972;SDS011;13765;51.166;4.466;2023-07-20T15:00:54;7.63;;;3.67;;
25972;SDS011;13765;51.166;4.466;2023-07-20T15:03:22;7.05;;;3.58;;
25972;SDS011;13765;51.166;4.466;2023-07-20T15:05:48;11.35;;;3.47;;
25972;SDS011;13765;51.166;4.466;2023-07-20T15:08:16;6.50;;;3.67;;
25972;SDS011;13765;51.166;4.466;2023-07-20T15:10:45;6.63;;;3.38;;
25972;SDS011;13765;51.166;4.466;2023-07-20T15:13:12;7.43;;;3.70;;
25972;SDS011;13765;51.166;4.466;2023-07-20T15:15:40;7.57;;;3.65;;
25972;SDS011;13765;51.166;4.466;2023-07-20T15:18:08;5.07;;;3.25;;
25972;SDS011;13765;51.166;4.466;2023-07-20T15:20:36;5.20;;;3.22;;
25972;SDS011;13765;51.166;4.466;2023-07-20T15:23:04;7.78;;;3.65;;
25972;SDS011;13765;51.166;4.466;2023-07-20T15:25:32;7.40;;;3.60;;
25972;SDS011;13765;51.166;4.466;2023-07-20T15:28:00;7.75;;;3.75;;
25972;SDS011;13765;51.166;4.466;2023-07-20T15:30:28;6.75;;;3.00;;
25972;SDS011;13765;51.166;4.466;2023-07-20T15:32:54;5.57;;;3.25;;
25972;SDS011;13765;51.166;4.466;2023-07-20T15:35:24;4.80;;;2.65;;
25972;SDS011;13765;51.166;4.466;2023-07-20T15:37:49;5.50;;;2.13;;
25972;SDS011;13765;51.166;4.466;2023-07-20T15:40:15;6.88;;;1.98;;
25972;SDS011;13765;51.166;4.466;2023-07-20T15:42:43;4.18;;;2.10;;
25972;SDS011;13765;51.166;4.466;2023-07-20T15:45:09;3.25;;;1.65;;